createdAt,value
2022-12-22T00:01:46.576Z,64.61
2022-12-22T00:06:02.414Z,64.45
2022-12-22T00:10:14.917Z,64.06
2022-12-22T00:14:27.965Z,63.33
2022-12-22T00:18:43.795Z,63.17
2022-12-22T00:22:56.311Z,63.03
2022-12-22T00:27:08.918Z,63.39
2022-12-22T00:31:21.556Z,62.88
2022-12-22T00:35:40.768Z,62.48
2022-12-22T00:39:54.596Z,63.02
2022-12-22T00:44:07.189Z,63.14
2022-12-22T00:48:23.620Z,61.92
2022-12-22T00:52:39.423Z,63.01
2022-12-22T00:56:52.073Z,63.36
2022-12-22T01:01:04.621Z,63.03
2022-12-22T01:05:17.283Z,62.45
2022-12-22T01:09:33.309Z,62.12
2022-12-22T01:13:46.626Z,62.96
2022-12-22T01:17:59.195Z,64.18
2022-12-22T01:22:12.951Z,64.12
2022-12-22T01:26:29.287Z,64.16
2022-12-22T01:30:41.928Z,64.50
2022-12-22T01:34:55.576Z,64.90
2022-12-22T01:39:08.302Z,64.59
2022-12-22T01:43:36.384Z,64.02
2022-12-22T01:47:50.666Z,64.39
2022-12-22T01:52:03.324Z,64.34
2022-12-22T01:56:17.047Z,64.22
2022-12-22T02:00:32.737Z,64.62
2022-12-22T02:04:55.817Z,64.46
2022-12-22T02:09:35.301Z,64.94
2022-12-22T02:14:02.704Z,63.46
2022-12-22T02:18:27.691Z,63.65
2022-12-22T02:22:55.086Z,64.42
2022-12-22T02:27:14.224Z,63.66
2022-12-22T02:31:26.786Z,64.74
2022-12-22T02:35:40.771Z,65.40
2022-12-22T02:40:05.988Z,65.24
2022-12-22T02:44:37.555Z,64.82
2022-12-22T02:49:00.706Z,64.41
2022-12-22T02:53:16.743Z,64.47
2022-12-22T02:57:32.472Z,65.11
2022-12-22T03:01:48.131Z,65.08
2022-12-22T03:06:00.743Z,65.35
2022-12-22T03:10:13.318Z,65.45
2022-12-22T03:14:25.858Z,65.14
2022-12-22T03:18:40.921Z,65.59
2022-12-22T03:22:53.676Z,66.24
2022-12-22T03:26:53.673Z,65.58
2022-12-22T03:30:59.382Z,65.08
2022-12-22T03:35:02.124Z,65.12
2022-12-22T03:39:05.079Z,65.48
2022-12-22T03:43:17.683Z,65.47
2022-12-22T03:47:17.757Z,65.60
2022-12-22T03:51:20.719Z,65.48
2022-12-22T03:55:20.814Z,65.15
2022-12-22T03:59:22.077Z,65.02
2022-12-22T04:03:22.276Z,65.57
2022-12-22T04:07:24.975Z,65.22
2022-12-22T04:11:49.309Z,65.43
2022-12-22T04:15:49.363Z,66.28
2022-12-22T04:19:49.372Z,66.35
2022-12-22T04:23:53.288Z,65.62
2022-12-22T04:27:53.300Z,65.72
2022-12-22T04:31:53.433Z,66.32
2022-12-22T04:35:53.539Z,66.76
2022-12-22T04:39:56.189Z,66.04
2022-12-22T04:43:56.242Z,66.17
2022-12-22T04:47:56.181Z,65.52
2022-12-22T04:51:56.727Z,65.50
2022-12-22T04:56:03.315Z,65.44
2022-12-22T05:00:03.392Z,65.31
2022-12-22T05:04:03.505Z,65.01
2022-12-22T05:08:03.677Z,65.91
2022-12-22T05:12:27.579Z,65.40
2022-12-22T05:16:27.652Z,64.82
2022-12-22T05:20:29.381Z,65.20
2022-12-22T05:24:29.691Z,64.67
2022-12-22T05:28:32.505Z,64.52
2022-12-22T05:32:35.716Z,64.76
2022-12-22T05:36:35.785Z,64.36
2022-12-22T05:40:35.834Z,64.88
2022-12-22T05:44:38.576Z,65.32
2022-12-22T05:48:40.530Z,64.95
2022-12-22T05:52:41.170Z,63.75
2022-12-22T05:56:41.413Z,63.88
2022-12-22T06:00:44.106Z,64.53
2022-12-22T06:04:44.103Z,64.30
2022-12-22T06:08:44.112Z,64.64
2022-12-22T06:12:44.968Z,64.04
2022-12-22T06:16:47.633Z,63.88
2022-12-22T06:20:49.144Z,64.13
2022-12-22T06:24:49.588Z,64.52
2022-12-22T06:28:50.545Z,64.94
2022-12-22T06:32:53.286Z,64.56
2022-12-22T06:36:53.299Z,64.64
2022-12-22T06:40:53.732Z,63.98
2022-12-22T06:44:55.006Z,63.67
2022-12-22T06:48:57.673Z,63.87
2022-12-22T06:52:57.790Z,64.20
2022-12-22T06:56:57.857Z,64.93
2022-12-22T07:00:59.381Z,64.34
2022-12-22T07:05:02.128Z,64.30
2022-12-22T07:09:02.235Z,64.46
2022-12-22T07:13:19.326Z,64.67
2022-12-22T07:17:19.731Z,65.31
2022-12-22T07:21:22.355Z,65.45
2022-12-22T07:25:22.341Z,65.51
2022-12-22T07:29:22.493Z,65.34
2022-12-22T07:33:22.788Z,65.61
2022-12-22T07:37:25.390Z,66.35
2022-12-22T07:41:37.961Z,65.84
2022-12-22T07:45:40.421Z,66.10
2022-12-22T07:49:52.957Z,66.17
2022-12-22T07:53:55.685Z,65.00
2022-12-22T08:03:06.077Z,64.34
2022-12-22T08:07:06.225Z,64.88
2022-12-22T08:11:09.263Z,66.00
2022-12-22T08:15:12.220Z,65.11
2022-12-22T08:19:12.680Z,64.29
2022-12-22T08:23:13.168Z,65.62
2022-12-22T08:27:26.114Z,64.68
2022-12-22T08:31:31.761Z,64.24
2022-12-22T08:35:32.273Z,63.92
2022-12-22T08:39:36.981Z,64.21
2022-12-22T08:43:39.670Z,64.76
2022-12-22T08:47:39.982Z,64.21
2022-12-22T08:51:40.196Z,63.41
2022-12-22T08:55:40.794Z,62.57
2022-12-22T08:59:43.874Z,59.93
2022-12-22T09:03:43.895Z,58.74
2022-12-22T09:07:44.010Z,57.97
2022-12-22T09:11:44.572Z,58.26
2022-12-22T09:15:47.542Z,57.71
2022-12-22T09:19:47.975Z,59.07
2022-12-22T09:23:48.372Z,59.86
2022-12-22T09:27:48.434Z,59.95
2022-12-22T09:31:51.213Z,59.83
2022-12-22T09:35:51.351Z,60.54
2022-12-22T09:39:51.708Z,59.18
2022-12-22T09:43:52.064Z,57.09
2022-12-22T09:47:57.887Z,57.66
2022-12-22T09:52:02.759Z,58.19
2022-12-22T09:56:02.961Z,58.14
2022-12-22T10:00:13.732Z,58.11
2022-12-22T10:04:31.766Z,57.61
2022-12-22T10:08:37.083Z,56.79
2022-12-22T10:12:37.398Z,57.02
2022-12-22T10:16:37.535Z,57.45
2022-12-22T10:20:41.847Z,57.25
2022-12-22T10:24:47.262Z,54.75
2022-12-22T10:28:52.492Z,54.24
2022-12-22T10:33:11.507Z,52.95
2022-12-22T10:37:14.244Z,53.42
2022-12-22T10:41:21.247Z,54.98
2022-12-22T10:45:28.992Z,53.12
2022-12-22T10:53:50.830Z,51.97
2022-12-22T10:57:52.221Z,50.60
2022-12-22T11:01:52.599Z,49.77
2022-12-22T11:05:52.886Z,49.21
2022-12-22T11:09:55.526Z,50.44
2022-12-22T11:14:09.835Z,50.50
2022-12-22T11:18:30.349Z,51.87
2022-12-22T11:22:44.206Z,52.59
2022-12-22T11:26:59.932Z,51.24
2022-12-22T11:31:20.255Z,51.54
2022-12-22T11:35:33.059Z,52.14
2022-12-22T11:39:46.477Z,53.52
2022-12-22T11:44:08.998Z,52.57
2022-12-22T11:48:35.411Z,52.71
2022-12-22T11:52:58.543Z,53.29
2022-12-22T11:57:07.888Z,55.40
2022-12-22T12:01:43.011Z,56.43
2022-12-22T12:06:15.154Z,58.23
2022-12-22T12:10:26.095Z,60.42
2022-12-22T12:14:37.597Z,61.01
2022-12-22T12:19:02.605Z,61.70
2022-12-22T12:23:23.050Z,62.09
2022-12-22T12:27:44.370Z,61.32
2022-12-22T12:31:53.444Z,61.09
2022-12-22T12:36:06.281Z,62.15
2022-12-22T12:40:32.450Z,62.75
2022-12-22T12:44:37.775Z,62.47
2022-12-22T12:48:43.264Z,63.69
2022-12-22T12:53:19.564Z,64.23
2022-12-22T12:57:30.126Z,63.80
2022-12-22T13:02:02.456Z,65.14
2022-12-22T13:06:05.363Z,65.41
2022-12-22T13:10:25.410Z,65.03
2022-12-22T13:14:58.874Z,65.26
2022-12-22T13:19:01.173Z,65.59
2022-12-22T13:23:05.132Z,65.28
2022-12-22T13:27:13.686Z,65.45
2022-12-22T13:31:22.341Z,65.98
2022-12-22T13:35:32.743Z,65.96
2022-12-22T13:39:33.619Z,65.69
2022-12-22T13:43:37.405Z,64.46
2022-12-22T13:47:37.579Z,65.67
2022-12-22T13:51:40.272Z,66.79
2022-12-22T13:55:42.596Z,67.60
2022-12-22T13:59:49.203Z,66.69
2022-12-22T14:04:01.002Z,65.33
2022-12-22T14:08:08.420Z,66.14
2022-12-22T14:12:18.097Z,67.29
2022-12-22T14:16:20.875Z,68.14
2022-12-22T14:20:29.051Z,66.83
2022-12-22T14:24:38.419Z,67.85
2022-12-22T14:28:50.446Z,67.16
2022-12-22T14:32:56.284Z,65.91
2022-12-22T14:36:58.703Z,66.63
2022-12-22T14:40:58.908Z,66.01
2022-12-22T14:44:59.760Z,66.34
2022-12-22T14:49:03.750Z,67.41
2022-12-22T14:53:06.818Z,67.95
2022-12-22T14:57:16.108Z,67.08
2022-12-22T15:01:25.182Z,66.35
2022-12-22T15:05:33.214Z,67.08
2022-12-22T15:10:13.172Z,67.46
2022-12-22T15:13:54.903Z,67.09
2022-12-22T15:17:56.657Z,66.18
2022-12-22T15:21:59.599Z,67.28
2022-12-22T15:25:59.660Z,65.84
2022-12-22T15:29:59.877Z,67.11
2022-12-22T15:34:07.190Z,66.78
2022-12-22T15:38:16.259Z,66.41
2022-12-22T15:42:16.438Z,66.67
2022-12-22T15:46:19.689Z,66.98
2022-12-22T15:50:24.559Z,67.36
2022-12-22T15:54:33.168Z,68.56
2022-12-22T15:58:38.552Z,66.70
2022-12-22T16:02:38.852Z,67.72
2022-12-22T16:06:39.664Z,67.29
2022-12-22T16:10:42.488Z,67.26
2022-12-22T16:14:49.788Z,66.57
2022-12-22T16:18:51.079Z,66.37
2022-12-22T16:22:54.270Z,66.32
2022-12-22T16:27:01.180Z,66.03
2022-12-22T16:31:02.594Z,65.66
2022-12-22T16:35:18.177Z,65.02
2022-12-22T16:39:18.358Z,64.74
2022-12-22T16:47:40.785Z,65.29
2022-12-22T16:51:50.991Z,66.12
2022-12-22T16:55:54.102Z,65.67
2022-12-22T16:59:56.751Z,66.00
2022-12-22T17:03:57.740Z,65.37
2022-12-22T17:08:00.721Z,65.04
2022-12-22T17:12:04.159Z,66.57
2022-12-22T17:16:07.821Z,65.76
2022-12-22T17:20:10.506Z,65.74
2022-12-22T17:24:20.503Z,66.61
2022-12-22T17:28:23.171Z,66.42
2022-12-22T17:32:26.571Z,65.97
2022-12-22T17:36:36.010Z,65.89
2022-12-22T17:40:36.159Z,65.93
2022-12-22T17:44:36.286Z,64.25
2022-12-22T17:48:40.113Z,64.41
2022-12-22T17:52:40.521Z,65.98
2022-12-22T17:56:40.639Z,65.88
2022-12-22T18:00:40.694Z,66.05
2022-12-22T18:04:43.426Z,65.12
2022-12-22T18:08:43.961Z,63.98
2022-12-22T18:12:44.297Z,63.93
2022-12-22T18:16:45.237Z,63.34
2022-12-22T18:21:05.934Z,63.51
2022-12-22T18:25:20.063Z,62.90
2022-12-22T18:29:21.698Z,62.72
2022-12-22T18:33:21.925Z,62.18
2022-12-22T18:37:25.601Z,63.01
2022-12-22T18:41:28.737Z,63.80
2022-12-22T18:45:33.450Z,63.78
2022-12-22T18:49:33.587Z,63.62
2022-12-22T18:53:36.611Z,65.10
2022-12-22T18:57:36.718Z,64.87
2022-12-22T19:01:38.706Z,65.09
2022-12-22T19:05:40.718Z,64.02
2022-12-22T19:09:43.512Z,64.56
2022-12-22T19:13:49.609Z,64.91
2022-12-22T19:17:50.773Z,65.63
2022-12-22T19:21:51.440Z,65.62
2022-12-22T19:25:58.018Z,64.55
2022-12-22T19:30:04.373Z,64.85
2022-12-22T19:34:10.197Z,64.62
2022-12-22T19:38:24.781Z,64.22
2022-12-22T19:42:29.574Z,64.50
2022-12-22T19:46:35.664Z,64.53
2022-12-22T19:50:36.118Z,64.09
2022-12-22T19:54:36.189Z,62.98
2022-12-22T19:58:43.092Z,62.69
2022-12-22T20:02:43.650Z,62.92
2022-12-22T20:06:43.795Z,64.47
2022-12-22T20:10:44.887Z,64.90
2022-12-22T20:14:48.180Z,64.92
2022-12-22T20:18:49.069Z,64.20
2022-12-22T20:22:52.863Z,63.64
2022-12-22T20:26:54.740Z,63.69
2022-12-22T20:30:58.586Z,63.37
2022-12-22T20:34:59.145Z,62.96
2022-12-22T20:39:02.181Z,63.43
2022-12-22T20:43:02.405Z,65.46
2022-12-22T20:47:06.127Z,65.70
2022-12-22T20:51:10.198Z,65.54
2022-12-22T20:55:12.466Z,65.67
2022-12-22T20:59:18.209Z,65.54
2022-12-22T21:03:21.574Z,65.35
2022-12-22T21:07:21.835Z,65.41
2022-12-22T21:11:22.076Z,65.03
2022-12-22T21:15:25.378Z,64.69
2022-12-22T21:19:28.126Z,64.27
2022-12-22T21:23:28.256Z,64.24
2022-12-22T21:27:31.129Z,64.47
2022-12-22T21:31:31.818Z,64.59
2022-12-22T21:35:39.418Z,65.14
2022-12-22T21:39:44.739Z,65.29
2022-12-22T21:43:45.198Z,66.23
2022-12-22T21:47:46.085Z,65.88
2022-12-22T21:51:49.178Z,65.92
2022-12-22T21:55:49.507Z,66.21
2022-12-22T21:59:49.684Z,65.98
2022-12-22T22:03:50.167Z,66.98
2022-12-22T22:07:53.381Z,66.41
2022-12-22T22:12:06.072Z,66.53
2022-12-22T22:16:06.280Z,65.90
2022-12-22T22:20:08.077Z,66.10
2022-12-22T22:24:11.353Z,66.72
2022-12-22T22:28:13.384Z,66.96
2022-12-22T22:32:13.491Z,66.62
2022-12-22T22:36:14.008Z,66.21
2022-12-22T22:40:18.081Z,66.61
2022-12-22T22:44:18.376Z,66.85
2022-12-22T22:48:23.266Z,66.93
2022-12-22T22:52:23.346Z,67.39
2022-12-22T22:56:26.062Z,67.86
2022-12-22T23:00:26.450Z,68.19
2022-12-22T23:04:26.730Z,68.42
2022-12-22T23:08:26.890Z,68.69
2022-12-22T23:12:30.107Z,67.92
2022-12-22T23:16:37.427Z,68.02
2022-12-22T23:20:38.371Z,67.32
2022-12-22T23:24:38.924Z,67.26
2022-12-22T23:28:42.260Z,66.17
2022-12-22T23:32:42.373Z,66.47
2022-12-22T23:36:42.723Z,66.34
2022-12-22T23:40:53.449Z,65.91
2022-12-22T23:44:57.051Z,65.61
2022-12-22T23:48:59.557Z,65.54
2022-12-22T23:52:59.703Z,66.27
2022-12-22T23:56:59.848Z,66.47
